AUA18Y LOWW-EDDM
Flight info
| Callsign | AUA18Y |
|---|---|
| Flight time | 0h 37m |
| Altitude | 28000 |
| Route | SOVIL DCT SITNI DCT BAGSI DCT MATIG DCT AMADI Q113 NAPSA NAPSA4A |
| Aircraft | E195/M-SDE3GILORVW/S |
Departure
| Time | 2026-05-06 14:52 |
|---|---|
| Airport | Vienna International Airport (LOWW) |
Arrival
| Time | 2026-05-06 15:30 |
|---|---|
| Airport | Munich Airport (EDDM) |
| Time | Latitude | Longitude | Altitude | Speed | Heading |
|---|---|---|---|---|---|
| 2026-05-06 14:29 | 48.11607 | 16.57101 | 604 ft | 0 kts | 26° |
| 2026-05-06 14:48 | 48.11614 | 16.57107 | 604 ft | 2 kts | 26° |
| 2026-05-06 14:48 | 48.11633 | 16.57120 | 604 ft | 4 kts | 26° |
| 2026-05-06 14:48 | 48.11659 | 16.57152 | 604 ft | 6 kts | 67° |
| 2026-05-06 14:48 | 48.11649 | 16.57239 | 602 ft | 10 kts | 113° |
| 2026-05-06 14:49 | 48.11616 | 16.57349 | 600 ft | 12 kts | 96° |
| 2026-05-06 14:49 | 48.11683 | 16.57396 | 598 ft | 14 kts | 345° |
| 2026-05-06 14:49 | 48.11787 | 16.57353 | 595 ft | 16 kts | 344° |
| 2026-05-06 14:49 | 48.11907 | 16.57301 | 592 ft | 19 kts | 346° |
| 2026-05-06 14:50 | 48.11996 | 16.57350 | 588 ft | 13 kts | 74° |
| 2026-05-06 14:50 | 48.12012 | 16.57489 | 588 ft | 13 kts | 98° |
| 2026-05-06 14:50 | 48.11991 | 16.57625 | 588 ft | 13 kts | 104° |
| 2026-05-06 14:50 | 48.11962 | 16.57758 | 589 ft | 13 kts | 111° |
| 2026-05-06 14:51 | 48.11939 | 16.57826 | 589 ft | 6 kts | 128° |
| 2026-05-06 14:51 | 48.11902 | 16.57853 | 589 ft | 6 kts | 167° |
| 2026-05-06 14:51 | 48.11863 | 16.57869 | 590 ft | 6 kts | 165° |
| 2026-05-06 14:51 | 48.11586 | 16.57985 | 591 ft | 82 kts | 164° |
| 2026-05-06 14:52 | 48.10812 | 16.58320 | 603 ft | 148 kts | 165° |
| 2026-05-06 14:52 | 48.09761 | 16.58792 | 1163 ft | 164 kts | 165° |
| 2026-05-06 14:52 | 48.08732 | 16.59179 | 2207 ft | 151 kts | 173° |
| 2026-05-06 14:52 | 48.07639 | 16.59132 | 2605 ft | 174 kts | 201° |
| 2026-05-06 14:53 | 48.06544 | 16.58054 | 3036 ft | 201 kts | 215° |
| 2026-05-06 14:53 | 48.05461 | 16.56682 | 3760 ft | 213 kts | 220° |
| 2026-05-06 14:53 | 48.04336 | 16.55076 | 4291 ft | 235 kts | 223° |
| 2026-05-06 14:53 | 48.03171 | 16.53282 | 4949 ft | 250 kts | 225° |
| 2026-05-06 14:54 | 48.01985 | 16.51377 | 5818 ft | 255 kts | 226° |
| 2026-05-06 14:54 | 48.00808 | 16.49445 | 6796 ft | 255 kts | 227° |
| 2026-05-06 14:54 | 47.99617 | 16.47473 | 7683 ft | 257 kts | 227° |
| 2026-05-06 14:54 | 47.98445 | 16.45464 | 8499 ft | 261 kts | 236° |
| 2026-05-06 14:55 | 47.97900 | 16.42918 | 9235 ft | 271 kts | 267° |
| 2026-05-06 14:55 | 47.97988 | 16.40085 | 10055 ft | 275 kts | 270° |
| 2026-05-06 14:55 | 47.98101 | 16.37237 | 10772 ft | 281 kts | 270° |
| 2026-05-06 14:55 | 47.98215 | 16.34299 | 11345 ft | 292 kts | 270° |
| 2026-05-06 14:56 | 47.98336 | 16.31237 | 11901 ft | 304 kts | 270° |
| 2026-05-06 14:56 | 47.98460 | 16.28038 | 12531 ft | 312 kts | 270° |
| 2026-05-06 14:56 | 47.98586 | 16.24805 | 13224 ft | 318 kts | 270° |
| 2026-05-06 14:56 | 47.98712 | 16.21513 | 13977 ft | 322 kts | 270° |
| 2026-05-06 14:57 | 47.98838 | 16.18217 | 14795 ft | 323 kts | 270° |
| 2026-05-06 14:57 | 47.98966 | 16.14848 | 15576 ft | 326 kts | 270° |
| 2026-05-06 14:57 | 47.99132 | 16.11513 | 16311 ft | 330 kts | 273° |
| 2026-05-06 14:57 | 47.99400 | 16.08089 | 17023 ft | 334 kts | 272° |
| 2026-05-06 14:58 | 47.99667 | 16.04658 | 17751 ft | 337 kts | 272° |
| 2026-05-06 14:58 | 47.99935 | 16.01170 | 18478 ft | 340 kts | 272° |
| 2026-05-06 14:58 | 48.00200 | 15.97705 | 19164 ft | 344 kts | 272° |
| 2026-05-06 14:58 | 48.00473 | 15.94137 | 19833 ft | 348 kts | 272° |
| 2026-05-06 14:59 | 48.00745 | 15.90559 | 20533 ft | 350 kts | 272° |
| 2026-05-06 14:59 | 48.01016 | 15.86974 | 21188 ft | 354 kts | 272° |
| 2026-05-06 14:59 | 48.01290 | 15.83334 | 21859 ft | 357 kts | 272° |
| 2026-05-06 14:59 | 48.01570 | 15.79605 | 22521 ft | 360 kts | 272° |
| 2026-05-06 15:00 | 48.01846 | 15.75918 | 23146 ft | 363 kts | 272° |
| 2026-05-06 15:00 | 48.02126 | 15.72153 | 23840 ft | 365 kts | 272° |
| 2026-05-06 15:00 | 48.02400 | 15.68450 | 24547 ft | 366 kts | 272° |
| 2026-05-06 15:00 | 48.02680 | 15.64648 | 25193 ft | 368 kts | 272° |
| 2026-05-06 15:01 | 48.02956 | 15.60886 | 25839 ft | 369 kts | 272° |
| 2026-05-06 15:01 | 48.03236 | 15.57055 | 26475 ft | 371 kts | 272° |
| 2026-05-06 15:01 | 48.03512 | 15.53258 | 27080 ft | 372 kts | 272° |
| 2026-05-06 15:01 | 48.03789 | 15.49419 | 27606 ft | 373 kts | 272° |
| 2026-05-06 15:02 | 48.04066 | 15.45579 | 27713 ft | 377 kts | 272° |
| 2026-05-06 15:02 | 48.04350 | 15.41600 | 27744 ft | 392 kts | 272° |
| 2026-05-06 15:02 | 48.04626 | 15.37509 | 27748 ft | 402 kts | 270° |
| 2026-05-06 15:02 | 48.04711 | 15.33356 | 27753 ft | 404 kts | 268° |
| 2026-05-06 15:03 | 48.04778 | 15.29182 | 27750 ft | 402 kts | 267° |
| 2026-05-06 15:03 | 48.04843 | 15.25041 | 27751 ft | 402 kts | 267° |
| 2026-05-06 15:03 | 48.04908 | 15.20899 | 27749 ft | 399 kts | 267° |
| 2026-05-06 15:03 | 48.04971 | 15.16769 | 27743 ft | 398 kts | 267° |
| 2026-05-06 15:04 | 48.05032 | 15.12589 | 27738 ft | 400 kts | 267° |
| 2026-05-06 15:04 | 48.05092 | 15.08449 | 27729 ft | 402 kts | 267° |
| 2026-05-06 15:04 | 48.05151 | 15.04326 | 27723 ft | 400 kts | 267° |
| 2026-05-06 15:04 | 48.05208 | 15.00210 | 27715 ft | 400 kts | 267° |
| 2026-05-06 15:05 | 48.05263 | 14.96034 | 27718 ft | 400 kts | 267° |
| 2026-05-06 15:05 | 48.05318 | 14.91903 | 27713 ft | 400 kts | 266° |
| 2026-05-06 15:05 | 48.05370 | 14.87736 | 27711 ft | 401 kts | 267° |
| 2026-05-06 15:05 | 48.05421 | 14.83603 | 27712 ft | 401 kts | 267° |
| 2026-05-06 15:06 | 48.05459 | 14.79447 | 27713 ft | 400 kts | 266° |
| 2026-05-06 15:06 | 48.05493 | 14.75339 | 27715 ft | 399 kts | 267° |
| 2026-05-06 15:06 | 48.05526 | 14.71210 | 27709 ft | 398 kts | 266° |
| 2026-05-06 15:06 | 48.05558 | 14.67058 | 27710 ft | 398 kts | 266° |
| 2026-05-06 15:07 | 48.05588 | 14.62957 | 27705 ft | 398 kts | 266° |
| 2026-05-06 15:07 | 48.05617 | 14.58806 | 27701 ft | 399 kts | 267° |
| 2026-05-06 15:07 | 48.05644 | 14.54712 | 27698 ft | 398 kts | 266° |
| 2026-05-06 15:07 | 48.05671 | 14.50553 | 27699 ft | 399 kts | 266° |
| 2026-05-06 15:08 | 48.05695 | 14.46446 | 27695 ft | 398 kts | 266° |
| 2026-05-06 15:08 | 48.05718 | 14.42307 | 27690 ft | 399 kts | 267° |
| 2026-05-06 15:08 | 48.05739 | 14.38205 | 27682 ft | 398 kts | 266° |
| 2026-05-06 15:08 | 48.05759 | 14.34088 | 27678 ft | 400 kts | 266° |
| 2026-05-06 15:09 | 48.05778 | 14.29916 | 27687 ft | 398 kts | 266° |
| 2026-05-06 15:09 | 48.05795 | 14.25830 | 27685 ft | 398 kts | 266° |
| 2026-05-06 15:09 | 48.05810 | 14.21669 | 27687 ft | 399 kts | 266° |
| 2026-05-06 15:09 | 48.05825 | 14.17568 | 27688 ft | 398 kts | 266° |
| 2026-05-06 15:10 | 48.05838 | 14.13443 | 27690 ft | 400 kts | 266° |
| 2026-05-06 15:10 | 48.05850 | 14.09257 | 27689 ft | 399 kts | 266° |
| 2026-05-06 15:10 | 48.05859 | 14.05158 | 27687 ft | 398 kts | 266° |
| 2026-05-06 15:10 | 48.05868 | 14.01055 | 27688 ft | 397 kts | 266° |
| 2026-05-06 15:11 | 48.05874 | 13.96884 | 27691 ft | 399 kts | 266° |
| 2026-05-06 15:11 | 48.05880 | 13.92775 | 27689 ft | 400 kts | 265° |
| 2026-05-06 15:11 | 48.05885 | 13.88678 | 27687 ft | 391 kts | 266° |
| 2026-05-06 15:11 | 48.05887 | 13.84636 | 27675 ft | 384 kts | 265° |
| 2026-05-06 15:12 | 48.05888 | 13.80658 | 27687 ft | 383 kts | 265° |
| 2026-05-06 15:12 | 48.05887 | 13.76713 | 27679 ft | 383 kts | 265° |
| 2026-05-06 15:12 | 48.05885 | 13.72706 | 27410 ft | 385 kts | 265° |
| 2026-05-06 15:12 | 48.05883 | 13.68735 | 26995 ft | 383 kts | 265° |
| 2026-05-06 15:13 | 48.05878 | 13.64793 | 26579 ft | 379 kts | 266° |
| 2026-05-06 15:13 | 48.05872 | 13.60882 | 26170 ft | 378 kts | 266° |
| 2026-05-06 15:13 | 48.05865 | 13.56969 | 25764 ft | 375 kts | 266° |
| 2026-05-06 15:13 | 48.05901 | 13.53060 | 25347 ft | 376 kts | 270° |
| 2026-05-06 15:14 | 48.06122 | 13.49214 | 24950 ft | 374 kts | 270° |
| 2026-05-06 15:14 | 48.06334 | 13.45398 | 24535 ft | 372 kts | 270° |
| 2026-05-06 15:14 | 48.06543 | 13.41549 | 24131 ft | 370 kts | 271° |
| 2026-05-06 15:14 | 48.06748 | 13.37740 | 23723 ft | 368 kts | 270° |
| 2026-05-06 15:15 | 48.06950 | 13.33958 | 23308 ft | 367 kts | 270° |
| 2026-05-06 15:15 | 48.07151 | 13.30154 | 22913 ft | 364 kts | 270° |
| 2026-05-06 15:15 | 48.07349 | 13.26409 | 22520 ft | 362 kts | 270° |
| 2026-05-06 15:15 | 48.07543 | 13.22709 | 22121 ft | 359 kts | 270° |
| 2026-05-06 15:16 | 48.07736 | 13.18980 | 21727 ft | 357 kts | 270° |
| 2026-05-06 15:16 | 48.07925 | 13.15322 | 21342 ft | 357 kts | 270° |
| 2026-05-06 15:16 | 48.08115 | 13.11628 | 20946 ft | 355 kts | 270° |
| 2026-05-06 15:16 | 48.08300 | 13.07996 | 20550 ft | 353 kts | 270° |
| 2026-05-06 15:17 | 48.08486 | 13.04318 | 20167 ft | 352 kts | 270° |
| 2026-05-06 15:17 | 48.08669 | 13.00682 | 19770 ft | 351 kts | 270° |
| 2026-05-06 15:17 | 48.08849 | 12.97101 | 19390 ft | 349 kts | 270° |
| 2026-05-06 15:17 | 48.09029 | 12.93469 | 18997 ft | 347 kts | 270° |
| 2026-05-06 15:18 | 48.09267 | 12.89901 | 18613 ft | 348 kts | 273° |
| 2026-05-06 15:18 | 48.09634 | 12.86366 | 18480 ft | 343 kts | 275° |
| 2026-05-06 15:18 | 48.10178 | 12.82878 | 18245 ft | 355 kts | 288° |
| 2026-05-06 15:18 | 48.11551 | 12.79772 | 17818 ft | 365 kts | 304° |
| 2026-05-06 15:19 | 48.13186 | 12.76902 | 17365 ft | 362 kts | 305° |
| 2026-05-06 15:19 | 48.14823 | 12.74040 | 16864 ft | 360 kts | 305° |
| 2026-05-06 15:19 | 48.16429 | 12.71209 | 16351 ft | 357 kts | 305° |
| 2026-05-06 15:19 | 48.17998 | 12.68391 | 15832 ft | 354 kts | 305° |
| 2026-05-06 15:20 | 48.19566 | 12.65540 | 15183 ft | 353 kts | 305° |
| 2026-05-06 15:20 | 48.21088 | 12.62731 | 14547 ft | 350 kts | 305° |
| 2026-05-06 15:20 | 48.22599 | 12.59923 | 13909 ft | 347 kts | 305° |
| 2026-05-06 15:20 | 48.24093 | 12.57109 | 13270 ft | 344 kts | 305° |
| 2026-05-06 15:21 | 48.25549 | 12.54343 | 12637 ft | 341 kts | 305° |
| 2026-05-06 15:21 | 48.27001 | 12.51562 | 12004 ft | 339 kts | 305° |
| 2026-05-06 15:21 | 48.28442 | 12.48785 | 11375 ft | 337 kts | 305° |
| 2026-05-06 15:21 | 48.29875 | 12.46004 | 10754 ft | 335 kts | 305° |
| 2026-05-06 15:22 | 48.31260 | 12.43300 | 10027 ft | 324 kts | 305° |
| 2026-05-06 15:22 | 48.32571 | 12.40744 | 9821 ft | 295 kts | 305° |
| 2026-05-06 15:22 | 48.33815 | 12.38328 | 9389 ft | 286 kts | 305° |
| 2026-05-06 15:22 | 48.35001 | 12.36012 | 8794 ft | 280 kts | 305° |
| 2026-05-06 15:23 | 48.36166 | 12.33711 | 8191 ft | 275 kts | 304° |
| 2026-05-06 15:23 | 48.37254 | 12.31414 | 7592 ft | 270 kts | 297° |
| 2026-05-06 15:23 | 48.38255 | 12.29056 | 6999 ft | 266 kts | 301° |
| 2026-05-06 15:23 | 48.38781 | 12.26530 | 6451 ft | 256 kts | 265° |
| 2026-05-06 15:24 | 48.38327 | 12.23992 | 5909 ft | 250 kts | 250° |
| 2026-05-06 15:24 | 48.37845 | 12.21502 | 5475 ft | 250 kts | 257° |
| 2026-05-06 15:24 | 48.37499 | 12.18970 | 5221 ft | 244 kts | 260° |
| 2026-05-06 15:24 | 48.37236 | 12.16470 | 4975 ft | 238 kts | 262° |
| 2026-05-06 15:25 | 48.37022 | 12.14057 | 4949 ft | 233 kts | 263° |
| 2026-05-06 15:25 | 48.36826 | 12.11643 | 4945 ft | 229 kts | 264° |
| 2026-05-06 15:25 | 48.36646 | 12.09293 | 4945 ft | 226 kts | 264° |
| 2026-05-06 15:25 | 48.36473 | 12.06994 | 4883 ft | 214 kts | 264° |
| 2026-05-06 15:26 | 48.36310 | 12.04816 | 4667 ft | 207 kts | 264° |
| 2026-05-06 15:26 | 48.36154 | 12.02709 | 4392 ft | 202 kts | 264° |
| 2026-05-06 15:26 | 48.36000 | 12.00644 | 4119 ft | 198 kts | 265° |
| 2026-05-06 15:26 | 48.35847 | 11.98597 | 3847 ft | 194 kts | 265° |
| 2026-05-06 15:27 | 48.35700 | 11.96621 | 3583 ft | 186 kts | 265° |
| 2026-05-06 15:27 | 48.35563 | 11.94795 | 3380 ft | 166 kts | 265° |
| 2026-05-06 15:27 | 48.35439 | 11.93151 | 3133 ft | 152 kts | 265° |
| 2026-05-06 15:27 | 48.35327 | 11.91656 | 2929 ft | 137 kts | 266° |
| 2026-05-06 15:28 | 48.35222 | 11.90258 | 2754 ft | 135 kts | 266° |
| 2026-05-06 15:28 | 48.35114 | 11.88838 | 2586 ft | 137 kts | 265° |
| 2026-05-06 15:28 | 48.35006 | 11.87409 | 2407 ft | 138 kts | 265° |
| 2026-05-06 15:28 | 48.34900 | 11.85985 | 2228 ft | 139 kts | 265° |
| 2026-05-06 15:29 | 48.34790 | 11.84544 | 2041 ft | 141 kts | 265° |
| 2026-05-06 15:29 | 48.34679 | 11.83091 | 1853 ft | 140 kts | 264° |
| 2026-05-06 15:29 | 48.34565 | 11.81639 | 1668 ft | 139 kts | 265° |
| 2026-05-06 15:29 | 48.34460 | 11.80216 | 1519 ft | 139 kts | 264° |
| 2026-05-06 15:30 | 48.34355 | 11.78869 | 1479 ft | 107 kts | 263° |
| 2026-05-06 15:30 | 48.34305 | 11.78075 | 1482 ft | 44 kts | 277° |
| 2026-05-06 15:30 | 48.34358 | 11.77840 | 1482 ft | 17 kts | 294° |
| 2026-05-06 15:30 | 48.34402 | 11.77693 | 1483 ft | 14 kts | 295° |
| 2026-05-06 15:31 | 48.34438 | 11.77568 | 1483 ft | 12 kts | 292° |
| 2026-05-06 15:31 | 48.34463 | 11.77490 | 1483 ft | 6 kts | 305° |
| 2026-05-06 15:31 | 48.34496 | 11.77448 | 1483 ft | 3 kts | 344° |
| 2026-05-06 15:32 | 48.34571 | 11.77428 | 1483 ft | 7 kts | 355° |
| 2026-05-06 15:32 | 48.34620 | 11.77453 | 1483 ft | 8 kts | 51° |
| 2026-05-06 15:32 | 48.34634 | 11.77541 | 1483 ft | 9 kts | 85° |
| 2026-05-06 15:32 | 48.34642 | 11.77648 | 1482 ft | 11 kts | 83° |
| 2026-05-06 15:33 | 48.34652 | 11.77768 | 1482 ft | 12 kts | 84° |
| 2026-05-06 15:33 | 48.34661 | 11.77901 | 1482 ft | 13 kts | 83° |
| 2026-05-06 15:33 | 48.34673 | 11.78048 | 1482 ft | 14 kts | 84° |
| 2026-05-06 15:33 | 48.34686 | 11.78210 | 1481 ft | 16 kts | 82° |
| 2026-05-06 15:34 | 48.34699 | 11.78381 | 1481 ft | 17 kts | 84° |
| 2026-05-06 15:34 | 48.34713 | 11.78567 | 1480 ft | 18 kts | 83° |
| 2026-05-06 15:34 | 48.34728 | 11.78758 | 1479 ft | 18 kts | 83° |
| 2026-05-06 15:34 | 48.34743 | 11.78954 | 1479 ft | 19 kts | 83° |
| 2026-05-06 15:35 | 48.34759 | 11.79147 | 1478 ft | 17 kts | 84° |
| 2026-05-06 15:35 | 48.34772 | 11.79332 | 1477 ft | 18 kts | 84° |
| 2026-05-06 15:35 | 48.34787 | 11.79513 | 1476 ft | 15 kts | 70° |
| 2026-05-06 15:35 | 48.34873 | 11.79555 | 1476 ft | 14 kts | 353° |
| 2026-05-06 15:36 | 48.34898 | 11.79550 | 1476 ft | 0 kts | 354° |
| 2026-05-06 15:36 | 48.34900 | 11.79550 | 1476 ft | 0 kts | 354° |
| 2026-05-06 15:36 | 48.34911 | 11.79548 | 1476 ft | 2 kts | 353° |
| 2026-05-06 15:36 | 48.34951 | 11.79541 | 1476 ft | 8 kts | 353° |
| 2026-05-06 15:37 | 48.35013 | 11.79531 | 1475 ft | 9 kts | 357° |
| 2026-05-06 15:37 | 48.35074 | 11.79553 | 1475 ft | 10 kts | 42° |
| 2026-05-06 15:37 | 48.35097 | 11.79650 | 1474 ft | 10 kts | 84° |
| 2026-05-06 15:37 | 48.35104 | 11.79756 | 1474 ft | 10 kts | 84° |
| 2026-05-06 15:38 | 48.35110 | 11.79835 | 1474 ft | 0 kts | 83° |
| 2026-05-06 15:40 | 48.35112 | 11.79852 | 1473 ft | 3 kts | 82° |
| 2026-05-06 15:40 | 48.35116 | 11.79904 | 1473 ft | 6 kts | 83° |
| 2026-05-06 15:40 | 48.35123 | 11.79989 | 1473 ft | 9 kts | 83° |
| 2026-05-06 15:40 | 48.35131 | 11.80106 | 1473 ft | 12 kts | 85° |
| 2026-05-06 15:41 | 48.35177 | 11.80193 | 1473 ft | 12 kts | 354° |
| 2026-05-06 15:41 | 48.35270 | 11.80175 | 1472 ft | 13 kts | 353° |
| 2026-05-06 15:41 | 48.35363 | 11.80158 | 1472 ft | 13 kts | 353° |
| 2026-05-06 15:41 | 48.35456 | 11.80140 | 1471 ft | 13 kts | 353° |
| 2026-05-06 15:42 | 48.35548 | 11.80124 | 1470 ft | 13 kts | 353° |
| 2026-05-06 15:42 | 48.35593 | 11.80063 | 1470 ft | 9 kts | 263° |
| 2026-05-06 15:42 | 48.35587 | 11.79997 | 1470 ft | 2 kts | 263° |
| 2026-05-06 15:42 | 48.35587 | 11.79995 | 1470 ft | 0 kts | 263° |